Time;durP1;ratioP1;P1;durP2;ratioP2;P2;SDS_P1;SDS_P2;PMS_P1;PMS_P2;Temp;Humidity;BMP_temperature;BMP_pressure;BME280_temperature;BME280_humidity;BME280_pressure;Samples;Min_cycle;Max_cycle;Signal;HPM_P1;HPM_P2
2022/04/05 04:01:06;;;;;;;15.80;11.50;;;5.50;99.90;;;;;;5733093;23;20506;-80
2022/04/05 04:03:33;;;;;;;18.63;12.40;;;5.60;99.90;;;;;;5009145;28;20515;-80
2022/04/05 04:06:00;;;;;;;17.00;12.37;;;5.50;99.90;;;;;;5009154;28;20749;-80
2022/04/05 04:08:27;;;;;;;17.80;11.33;;;5.50;99.90;;;;;;5008251;28;20447;-80
2022/04/05 04:10:54;;;;;;;14.93;11.50;;;5.50;99.90;;;;;;5014679;28;20577;-80
2022/04/05 04:13:21;;;;;;;19.27;11.27;;;5.50;99.90;;;;;;5028702;28;20458;-81
2022/04/05 04:15:48;;;;;;;15.73;11.40;;;5.50;99.90;;;;;;5028529;28;20490;-81
2022/04/05 04:18:17;;;;;;;18.07;12.67;;;5.40;99.90;;;;;;5027829;28;20460;-81
2022/04/05 04:20:43;;;;;;;14.53;11.30;;;5.40;99.90;;;;;;5027485;28;20489;-81
2022/04/05 04:23:11;;;;;;;13.50;10.43;;;5.40;99.90;;;;;;5028564;28;20469;-82
2022/04/05 04:25:38;;;;;;;16.63;11.33;;;5.20;99.90;;;;;;5028381;28;20480;-81
2022/04/05 04:28:06;;;;;;;15.83;10.80;;;5.20;99.90;;;;;;5027666;28;20967;-81
2022/04/05 04:30:33;;;;;;;12.63;10.57;;;5.20;99.90;;;;;;5028199;28;20485;-81
2022/04/05 04:33:00;;;;;;;17.37;12.03;;;5.30;99.90;;;;;;5028936;28;20552;-82
2022/04/05 04:35:29;;;;;;;19.67;11.50;;;5.20;99.90;;;;;;5028937;28;20519;-81
2022/04/05 04:37:56;;;;;;;16.90;12.23;;;5.20;99.90;;;;;;5028876;28;20468;-71
2022/04/05 04:40:23;;;;;;;22.10;11.60;;;5.20;99.90;;;;;;5026609;28;20466;-70
2022/04/05 04:42:50;;;;;;;15.90;11.70;;;5.20;99.90;;;;;;5035527;28;20476;-80
2022/04/05 04:45:17;;;;;;;14.17;10.90;;;5.20;99.90;;;;;;5042271;28;20549;-81
2022/04/05 04:47:44;;;;;;;20.80;11.87;;;5.20;99.90;;;;;;5041105;28;20460;-81
2022/04/05 04:50:12;;;;;;;18.47;11.40;;;5.20;99.90;;;;;;5042235;28;20480;-81
2022/04/05 04:52:40;;;;;;;17.67;11.80;;;5.20;99.90;;;;;;5042792;28;20456;-81
2022/04/05 04:55:08;;;;;;;15.60;11.20;;;5.30;99.90;;;;;;5042641;28;20525;-79
2022/04/05 04:57:35;;;;;;;17.03;12.50;;;5.30;99.90;;;;;;5040525;28;20480;-80
2022/04/05 05:00:01;;;;;;;17.53;12.43;;;5.30;99.90;;;;;;5043000;28;20469;-81
2022/04/05 05:02:28;;;;;;;15.47;11.70;;;5.40;99.90;;;;;;5042854;28;20589;-81
2022/04/05 05:04:55;;;;;;;16.87;12.40;;;5.40;99.90;;;;;;5042306;28;20470;-80
2022/04/05 05:07:22;;;;;;;14.70;11.67;;;5.40;99.90;;;;;;5043344;28;20454;-81
2022/04/05 05:09:50;;;;;;;17.07;12.60;;;5.40;99.90;;;;;;5042892;28;20468;-80
2022/04/05 05:12:21;;;;;;;16.77;12.40;;;5.50;99.90;;;;;;5044230;28;20537;-82
2022/04/05 05:14:48;;;;;;;16.30;12.00;;;5.50;99.90;;;;;;5043647;28;20494;-82
2022/04/05 05:17:15;;;;;;;15.83;12.43;;;5.50;99.90;;;;;;5045068;28;20453;-81
2022/04/05 05:19:42;;;;;;;18.50;12.20;;;5.50;99.90;;;;;;5048319;28;20465;-81
2022/04/05 05:22:09;;;;;;;20.20;12.87;;;5.60;99.90;;;;;;5048975;28;20542;-82
2022/04/05 05:24:36;;;;;;;16.17;11.77;;;5.60;99.90;;;;;;5049490;28;20617;-81
2022/04/05 05:27:04;;;;;;;18.00;12.50;;;5.50;99.90;;;;;;5048413;28;20434;-81
2022/04/05 05:29:31;;;;;;;18.27;13.43;;;5.50;99.90;;;;;;5043875;28;20460;-80
2022/04/05 05:31:58;;;;;;;14.63;12.33;;;5.50;99.90;;;;;;5035581;28;21033;-80
2022/04/05 05:34:25;;;;;;;17.80;12.87;;;5.50;99.90;;;;;;5034466;28;20466;-81
2022/04/05 05:36:51;;;;;;;15.20;12.40;;;5.50;99.90;;;;;;5033659;28;20453;-81
2022/04/05 05:39:18;;;;;;;16.97;12.23;;;5.50;99.90;;;;;;5032742;28;20828;-80
2022/04/05 05:41:47;;;;;;;19.10;13.57;;;5.60;99.90;;;;;;5033171;28;20564;-79
2022/04/05 05:44:15;;;;;;;18.33;14.10;;;5.60;99.90;;;;;;5035734;28;20484;-80
2022/04/05 05:46:42;;;;;;;19.50;12.37;;;5.50;99.90;;;;;;5031608;28;20460;-79
2022/04/05 05:49:09;;;;;;;18.50;14.50;;;5.50;99.90;;;;;;5030105;28;20458;-76
2022/04/05 05:51:35;;;;;;;19.03;13.60;;;5.50;99.90;;;;;;5025289;28;20513;-76
2022/04/05 05:54:02;;;;;;;20.67;14.60;;;5.50;99.90;;;;;;5025101;28;20453;-77
2022/04/05 05:56:29;;;;;;;21.47;14.57;;;5.50;99.90;;;;;;5025107;28;20867;-76
2022/04/05 05:58:56;;;;;;;19.23;14.60;;;5.50;99.90;;;;;;5025835;28;20957;-76
2022/04/05 06:01:25;;;;;;;21.77;12.57;;;5.40;99.90;;;;;;5026672;28;20988;-77
2022/04/05 06:03:52;;;;;;;18.53;13.60;;;5.40;99.90;;;;;;5026889;28;20460;-78
2022/04/05 06:06:19;;;;;;;18.17;12.27;;;5.40;99.90;;;;;;5025924;28;20454;-78
2022/04/05 06:08:46;;;;;;;17.50;12.30;;;5.40;99.90;;;;;;5026184;28;21056;-78
2022/04/05 06:11:13;;;;;;;15.27;11.50;;;5.40;99.90;;;;;;5026268;28;20473;-77
2022/04/05 06:13:40;;;;;;;15.73;11.90;;;5.30;99.90;;;;;;5020238;28;20604;-77
2022/04/05 06:16:08;;;;;;;14.60;11.53;;;5.30;99.90;;;;;;5005953;28;20578;-75
2022/04/05 06:18:37;;;;;;;15.80;12.20;;;5.20;99.90;;;;;;5005271;28;20513;-76
2022/04/05 06:21:04;;;;;;;15.83;12.07;;;5.20;99.90;;;;;;5005410;28;20470;-69
2022/04/05 06:23:31;;;;;;;15.07;11.83;;;5.20;99.90;;;;;;5005519;28;20461;-69
2022/04/05 06:25:58;;;;;;;22.13;13.33;;;5.20;99.90;;;;;;5005662;28;20450;-70
2022/04/05 06:28:24;;;;;;;21.23;13.43;;;5.30;99.90;;;;;;5004983;28;20466;-69
2022/04/05 06:30:51;;;;;;;16.07;11.30;;;5.30;99.90;;;;;;5005641;28;20478;-69
2022/04/05 06:33:21;;;;;;;20.27;12.57;;;5.30;99.90;;;;;;5009121;28;20482;-69
2022/04/05 06:35:51;;;;;;;17.97;13.10;;;5.40;99.90;;;;;;5009626;28;20589;-77
2022/04/05 06:38:19;;;;;;;19.53;12.80;;;5.30;99.90;;;;;;5009739;28;21037;-79
2022/04/05 06:40:46;;;;;;;18.93;13.17;;;5.20;99.90;;;;;;5012767;28;20561;-78
2022/04/05 06:43:14;;;;;;;18.53;12.47;;;5.30;99.90;;;;;;5009407;28;20466;-78
2022/04/05 06:45:42;;;;;;;13.67;11.00;;;5.30;99.90;;;;;;5009649;28;20455;-78
2022/04/05 06:48:09;;;;;;;16.50;13.00;;;5.30;99.90;;;;;;5009121;28;20458;-78
2022/04/05 06:50:36;;;;;;;17.30;13.40;;;5.30;99.90;;;;;;5009240;28;20566;-78
2022/04/05 06:53:08;;;;;;;16.80;12.50;;;5.30;99.90;;;;;;5010476;28;20545;-78
2022/04/05 06:55:35;;;;;;;13.73;11.57;;;5.30;99.90;;;;;;5013910;28;20529;-78
2022/04/05 06:58:02;;;;;;;20.27;13.43;;;5.20;99.90;;;;;;5013018;28;20895;-78
2022/04/05 07:00:29;;;;;;;20.00;11.90;;;5.30;99.90;;;;;;5014332;28;20469;-78
2022/04/05 07:02:58;;;;;;;14.90;11.10;;;5.30;99.90;;;;;;5018562;28;20430;-78
2022/04/05 07:05:25;;;;;;;15.90;11.30;;;5.30;99.90;;;;;;5017302;28;20501;-78
2022/04/05 07:07:52;;;;;;;19.77;13.53;;;5.40;99.90;;;;;;5016100;28;20482;-78
2022/04/05 07:10:21;;;;;;;16.37;12.67;;;5.30;99.90;;;;;;5015530;28;20490;-78
2022/04/05 07:12:49;;;;;;;15.93;12.43;;;5.40;99.90;;;;;;5024722;28;20462;-78
2022/04/05 07:15:16;;;;;;;20.00;12.90;;;5.50;99.90;;;;;;5025932;28;20525;-78
2022/04/05 07:17:44;;;;;;;16.60;12.67;;;5.50;99.90;;;;;;5013825;28;20538;-78
2022/04/05 07:20:11;;;;;;;15.80;12.93;;;5.50;99.90;;;;;;5013427;28;20451;-78
2022/04/05 07:22:45;;;;;;;19.10;12.80;;;5.50;99.90;;;;;;5014557;28;20537;-76
2022/04/05 07:25:13;;;;;;;21.40;13.90;;;5.60;99.90;;;;;;5009576;28;20463;-77
2022/04/05 07:27:41;;;;;;;15.73;11.67;;;5.70;99.90;;;;;;5007458;28;20463;-77
2022/04/05 07:30:09;;;;;;;16.90;11.93;;;5.70;99.90;;;;;;5008564;28;20969;-77
2022/04/05 07:32:38;;;;;;;17.40;13.43;;;5.60;99.90;;;;;;5008512;28;20493;-77
2022/04/05 07:35:05;;;;;;;18.30;14.07;;;5.60;99.90;;;;;;5013417;28;20477;-79
2022/04/05 07:37:32;;;;;;;24.70;13.23;;;5.60;99.90;;;;;;5015485;28;20455;-79
2022/04/05 07:39:59;;;;;;;17.10;12.57;;;5.60;99.90;;;;;;5013272;28;20498;-77
2022/04/05 07:42:27;;;;;;;17.23;13.03;;;5.70;99.90;;;;;;5008914;28;20475;-77
2022/04/05 07:44:55;;;;;;;18.40;13.43;;;5.70;99.90;;;;;;5008727;28;20468;-77
2022/04/05 07:47:22;;;;;;;18.67;13.43;;;5.80;99.90;;;;;;5008501;28;20542;-77
2022/04/05 07:49:49;;;;;;;21.67;12.30;;;5.90;99.90;;;;;;5009541;28;20454;-77
2022/04/05 07:52:16;;;;;;;22.80;13.43;;;5.90;99.90;;;;;;5009881;28;20474;-77
2022/04/05 07:54:43;;;;;;;16.37;13.10;;;5.90;99.90;;;;;;5010892;28;20454;-79
2022/04/05 07:57:13;;;;;;;16.00;12.67;;;6.00;99.90;;;;;;5013048;28;20545;-76
2022/04/05 07:59:40;;;;;;;17.83;11.97;;;6.00;99.90;;;;;;5009022;28;20451;-77
2022/04/05 08:02:09;;;;;;;18.03;12.20;;;5.90;99.90;;;;;;5013246;28;20514;-79
2022/04/05 08:04:36;;;;;;;16.47;12.60;;;6.00;99.90;;;;;;5009533;28;20463;-77
2022/04/05 08:07:03;;;;;;;19.27;12.80;;;6.00;99.90;;;;;;5009785;28;20455;-78
2022/04/05 08:09:30;;;;;;;19.07;14.67;;;6.10;99.90;;;;;;5009903;28;21086;-77
2022/04/05 08:11:56;;;;;;;16.60;12.43;;;6.10;99.90;;;;;;5011699;28;20854;-77
2022/04/05 08:14:27;;;;;;;17.73;13.20;;;6.10;99.90;;;;;;5011021;28;20458;-77
2022/04/05 08:16:56;;;;;;;16.60;12.30;;;6.10;99.90;;;;;;5010006;28;21029;-77
2022/04/05 08:19:24;;;;;;;21.30;13.67;;;6.10;99.90;;;;;;5010447;28;20470;-77
2022/04/05 08:21:51;;;;;;;17.90;12.23;;;6.00;99.90;;;;;;5011293;28;20467;-78
2022/04/05 08:24:20;;;;;;;18.50;12.30;;;6.00;99.90;;;;;;5016772;28;20451;-78
2022/04/05 08:26:47;;;;;;;14.87;11.10;;;6.00;99.90;;;;;;5014758;28;20478;-78
2022/04/05 08:29:14;;;;;;;17.83;11.73;;;6.10;99.90;;;;;;5015113;28;20497;-78
2022/04/05 08:31:41;;;;;;;14.87;11.87;;;6.20;99.90;;;;;;5012266;28;21053;-78
2022/04/05 08:34:08;;;;;;;16.90;12.60;;;6.20;99.90;;;;;;5015220;28;20450;-78
2022/04/05 08:36:36;;;;;;;20.50;14.00;;;6.10;99.90;;;;;;5012311;28;20948;-78
2022/04/05 08:39:04;;;;;;;17.03;12.60;;;6.20;99.90;;;;;;5013750;28;20541;-78
2022/04/05 08:41:37;;;;;;;17.97;13.10;;;6.20;99.90;;;;;;5012571;28;20485;-78
2022/04/05 08:44:05;;;;;;;15.90;11.97;;;6.20;99.90;;;;;;5013850;28;20495;-78
2022/04/05 08:46:35;;;;;;;17.40;12.67;;;6.30;99.90;;;;;;5012994;28;20459;-78
2022/04/05 08:49:03;;;;;;;16.17;12.23;;;6.30;99.90;;;;;;5013601;28;20534;-78
2022/04/05 08:51:31;;;;;;;18.83;13.33;;;6.30;99.90;;;;;;5012857;28;20535;-78
2022/04/05 08:53:59;;;;;;;21.23;14.50;;;6.30;99.90;;;;;;5012415;28;20518;-78
2022/04/05 08:56:27;;;;;;;21.97;14.87;;;6.30;99.90;;;;;;5011860;28;20544;-78
2022/04/05 08:58:54;;;;;;;20.77;13.37;;;6.40;99.90;;;;;;5013268;28;20473;-78
2022/04/05 09:01:21;;;;;;;21.40;15.17;;;6.40;99.90;;;;;;5013111;28;20566;-78
2022/04/05 09:03:49;;;;;;;19.87;13.90;;;6.50;99.90;;;;;;5012943;28;20502;-78
2022/04/05 09:06:28;;;;;;;18.53;12.93;;;6.60;99.90;;;;;;5012216;28;20793;-78
2022/04/05 09:09:09;;;;;;;20.67;13.27;;;6.70;99.90;;;;;;5013456;28;20978;-78
2022/04/05 09:11:36;;;;;;;18.03;13.10;;;6.70;99.90;;;;;;5012413;28;20474;-78
2022/04/05 09:14:05;;;;;;;17.37;11.90;;;6.70;99.90;;;;;;5012783;28;20485;-78
2022/04/05 09:16:35;;;;;;;18.50;12.60;;;6.70;99.90;;;;;;5011648;28;20498;-78
2022/04/05 09:19:11;;;;;;;19.73;11.83;;;6.70;99.90;;;;;;5012954;28;20458;-78
2022/04/05 09:21:52;;;;;;;17.63;11.97;;;6.70;99.90;;;;;;5013821;28;20541;-78
2022/04/05 09:24:20;;;;;;;22.37;13.00;;;6.70;99.90;;;;;;5012329;28;20459;-78
2022/04/05 09:26:47;;;;;;;16.93;13.50;;;6.70;99.90;;;;;;5011749;28;20478;-79
2022/04/05 09:29:16;;;;;;;17.83;13.13;;;6.80;99.90;;;;;;5013254;28;21312;-79
2022/04/05 09:31:48;;;;;;;18.60;14.43;;;6.80;99.90;;;;;;5014342;28;20485;-80
2022/04/05 09:34:19;;;;;;;19.47;14.10;;;6.90;99.90;;;;;;5017458;28;20454;-81
2022/04/05 09:36:48;;;;;;;18.73;13.47;;;6.90;99.90;;;;;;5015615;28;20486;-80
2022/04/05 09:39:21;;;;;;;20.77;14.30;;;6.90;99.90;;;;;;5016381;28;21177;-80
2022/04/05 09:41:52;;;;;;;19.60;13.60;;;6.90;99.90;;;;;;5016938;28;20514;-80
2022/04/05 09:44:26;;;;;;;18.80;12.60;;;6.80;99.90;;;;;;5015990;28;20454;-81
2022/04/05 09:47:03;;;;;;;16.30;12.83;;;6.80;99.90;;;;;;5013635;28;20450;-80
2022/04/05 09:49:35;;;;;;;18.73;12.97;;;6.80;99.90;;;;;;5012385;28;21380;-78
2022/04/05 09:52:02;;;;;;;16.97;14.07;;;6.80;99.90;;;;;;5016980;28;20523;-82
2022/04/05 09:54:31;;;;;;;21.70;13.30;;;6.90;99.90;;;;;;5017019;28;20470;-82
2022/04/05 09:57:06;;;;;;;22.77;14.37;;;7.00;99.90;;;;;;5015911;28;20502;-81
2022/04/05 09:59:40;;;;;;;19.70;14.03;;;7.00;99.90;;;;;;5017362;28;20449;-81
2022/04/05 10:02:12;;;;;;;16.97;12.93;;;7.10;99.90;;;;;;5017046;28;20581;-82
2022/04/05 10:05:01;;;;;;;17.87;13.53;;;7.10;99.90;;;;;;5019428;28;20453;-81
2022/04/05 10:07:29;;;;;;;17.40;13.10;;;7.20;99.90;;;;;;5018049;28;20458;-81
2022/04/05 10:09:59;;;;;;;16.17;14.07;;;7.20;99.90;;;;;;5020832;28;20506;-81
2022/04/05 10:12:27;;;;;;;16.97;13.73;;;7.30;99.90;;;;;;5017365;28;20549;-82
2022/04/05 10:14:55;;;;;;;18.53;14.47;;;7.30;99.90;;;;;;5014451;28;20451;-82
2022/04/05 10:17:27;;;;;;;21.43;14.07;;;7.40;99.90;;;;;;5013885;28;20508;-81
2022/04/05 10:19:56;;;;;;;18.07;14.20;;;7.40;99.90;;;;;;5011675;28;20458;-81
2022/04/05 10:22:23;;;;;;;21.67;15.63;;;7.50;99.90;;;;;;5014886;28;20458;-79
2022/04/05 10:24:52;;;;;;;18.77;13.97;;;7.50;99.90;;;;;;5014350;28;20490;-81
2022/04/05 10:27:21;;;;;;;16.77;13.30;;;7.50;99.90;;;;;;5014630;28;20461;-78
2022/04/05 10:29:56;;;;;;;19.93;14.30;;;7.50;99.90;;;;;;5014319;28;20521;-81
2022/04/05 10:32:39;;;;;;;18.47;13.40;;;7.60;99.90;;;;;;5015911;28;20616;-81
2022/04/05 10:35:08;;;;;;;16.63;12.37;;;7.60;99.90;;;;;;5015375;28;20470;-82
2022/04/05 10:37:37;;;;;;;16.03;13.53;;;7.50;99.90;;;;;;5014822;28;20495;-81
2022/04/05 10:40:16;;;;;;;18.50;14.17;;;7.50;99.90;;;;;;5016262;28;20465;-81
2022/04/05 10:42:47;;;;;;;20.03;14.00;;;7.60;99.90;;;;;;5014881;28;20462;-81
2022/04/05 10:45:16;;;;;;;18.63;13.77;;;7.60;99.90;;;;;;5015348;28;20457;-80
2022/04/05 10:48:00;;;;;;;21.17;13.80;;;7.70;99.90;;;;;;5014853;28;20966;-80
2022/04/05 10:50:29;;;;;;;16.50;13.30;;;7.70;99.90;;;;;;5015346;28;20450;-82
2022/04/05 10:53:23;;;;;;;19.67;14.03;;;7.70;99.90;;;;;;5015710;28;21195;-82
2022/04/05 10:56:17;;;;;;;20.60;14.37;;;7.70;99.90;;;;;;4970160;28;20904;-83
2022/04/05 10:59:27;;;;;;;23.90;15.23;;;7.70;99.90;;;;;;4972703;28;20496;-82
2022/04/05 11:01:55;;;;;;;19.03;13.53;;;7.70;99.90;;;;;;5015403;28;20481;-82
2022/04/05 11:04:46;;;;;;;21.43;14.80;;;7.60;99.90;;;;;;5016761;28;20475;-83
2022/04/05 11:07:13;;;;;;;19.73;14.53;;;7.70;99.90;;;;;;5015964;28;20442;-82
2022/04/05 11:09:50;;;;;;;19.13;14.87;;;7.80;99.90;;;;;;5014643;28;20454;-82
2022/04/05 11:12:26;;;;;;;16.57;12.17;;;7.80;99.90;;;;;;5014184;28;20478;-81
2022/04/05 11:14:54;;;;;;;17.53;14.30;;;7.80;99.90;;;;;;5014192;28;20463;-83
2022/04/05 11:17:25;;;;;;;22.00;13.90;;;7.80;99.90;;;;;;5013047;28;20533;-82
2022/04/05 11:19:55;;;;;;;21.03;15.07;;;7.80;99.90;;;;;;5016107;28;21119;-82
2022/04/05 11:22:31;;;;;;;19.73;14.17;;;7.80;99.90;;;;;;5016733;28;20508;-82
2022/04/05 11:25:00;;;;;;;18.97;15.43;;;7.90;99.90;;;;;;5017191;28;20450;-82
2022/04/05 11:27:33;;;;;;;16.67;13.57;;;7.90;99.90;;;;;;5016131;28;20485;-82
2022/04/05 11:30:37;;;;;;;17.97;13.93;;;8.00;99.90;;;;;;5016052;28;20463;-83
2022/04/05 11:33:41;;;;;;;19.90;14.67;;;8.10;99.90;;;;;;5015146;28;20462;-82
2022/04/05 11:36:10;;;;;;;19.13;15.90;;;8.10;99.90;;;;;;5009095;28;20454;-82
2022/04/05 11:38:40;;;;;;;19.43;14.73;;;8.10;99.90;;;;;;5020445;28;20494;-79
2022/04/05 11:41:09;;;;;;;20.20;15.00;;;8.10;99.90;;;;;;5021841;28;20502;-79
2022/04/05 11:43:41;;;;;;;18.93;14.27;;;8.10;99.90;;;;;;5020843;28;20454;-79
2022/04/05 11:46:16;;;;;;;16.37;14.00;;;8.20;99.90;;;;;;5022006;28;20473;-79
2022/04/05 11:48:46;;;;;;;21.37;15.77;;;8.20;99.90;;;;;;5024951;28;20516;-80
2022/04/05 11:51:16;;;;;;;21.80;14.70;;;8.20;99.90;;;;;;5027728;28;20475;-80
2022/04/05 11:53:43;;;;;;;23.87;14.60;;;8.20;99.90;;;;;;5027775;28;20979;-80
2022/04/05 11:56:13;;;;;;;18.90;14.17;;;8.20;99.90;;;;;;5027810;28;20455;-80
2022/04/05 11:58:42;;;;;;;17.37;13.80;;;8.20;99.90;;;;;;5025357;28;20490;-80
2022/04/05 12:01:12;;;;;;;18.37;12.77;;;8.30;99.90;;;;;;5021386;28;20911;-80
2022/04/05 12:03:45;;;;;;;20.30;14.20;;;8.30;99.90;;;;;;5013451;28;20505;-80
2022/04/05 12:06:13;;;;;;;14.10;12.60;;;8.20;99.90;;;;;;5013353;28;20442;-81
2022/04/05 12:08:41;;;;;;;17.27;12.70;;;8.20;99.90;;;;;;5011797;28;20458;-80
2022/04/05 12:11:09;;;;;;;17.93;13.10;;;8.20;99.90;;;;;;4994609;28;21095;-80
2022/04/05 12:13:37;;;;;;;17.70;13.13;;;8.20;99.90;;;;;;5012536;28;20463;-80
2022/04/05 12:16:07;;;;;;;18.20;14.23;;;8.30;99.90;;;;;;5012844;28;20486;-80
2022/04/05 12:18:34;;;;;;;19.17;14.30;;;8.30;99.90;;;;;;5014070;28;21019;-80
2022/04/05 12:21:04;;;;;;;16.80;13.20;;;8.30;99.90;;;;;;5013386;28;20509;-80
2022/04/05 12:23:33;;;;;;;17.57;12.80;;;8.40;99.90;;;;;;5014411;28;20439;-80
2022/04/05 12:26:09;;;;;;;16.17;13.40;;;8.40;99.90;;;;;;5012943;28;20463;-80
2022/04/05 12:28:38;;;;;;;72.10;53.27;;;8.40;99.90;;;;;;5011563;28;20947;-79
2022/04/05 12:31:10;;;;;;;164.37;116.43;;;8.50;99.90;;;;;;5010894;28;20481;-79
2022/04/05 12:33:38;;;;;;;16.97;13.17;;;8.40;99.90;;;;;;5012290;28;20545;-79
2022/04/05 12:36:07;;;;;;;17.20;12.43;;;8.40;99.90;;;;;;5013377;28;20549;-80
2022/04/05 12:38:35;;;;;;;18.10;12.47;;;8.50;99.90;;;;;;5012607;28;20893;-80
2022/04/05 12:41:03;;;;;;;14.70;12.57;;;8.50;99.90;;;;;;5012221;28;20483;-79
2022/04/05 12:43:31;;;;;;;20.30;13.77;;;8.40;99.90;;;;;;5012483;28;20453;-80
2022/04/05 12:46:10;;;;;;;19.77;14.03;;;8.50;99.90;;;;;;5012565;28;20549;-79
2022/04/05 12:48:37;;;;;;;21.70;15.60;;;8.60;99.90;;;;;;5032362;28;20449;-79
2022/04/05 12:51:04;;;;;;;16.13;14.43;;;8.60;99.90;;;;;;5033172;28;20477;-81
2022/04/05 12:53:37;;;;;;;19.50;12.93;;;8.60;99.90;;;;;;5035457;28;20481;-81
2022/04/05 12:56:09;;;;;;;14.40;11.97;;;8.60;99.90;;;;;;5037521;28;20453;-81
2022/04/05 12:58:46;;;;;;;16.83;13.83;;;8.60;99.90;;;;;;5035441;28;20493;-68
2022/04/05 13:01:24;;;;;;;15.97;12.30;;;8.50;99.90;;;;;;5025892;28;20489;-68
2022/04/05 13:03:58;;;;;;;12.63;11.20;;;8.50;99.90;;;;;;5026645;28;21019;-69
2022/04/05 13:06:27;;;;;;;16.80;12.70;;;8.50;99.90;;;;;;5026719;28;20450;-69
2022/04/05 13:09:06;;;;;;;18.00;12.27;;;8.60;99.90;;;;;;5027398;28;20450;-69
2022/04/05 13:11:33;;;;;;;12.53;11.23;;;8.60;99.90;;;;;;5026788;28;20481;-68
2022/04/05 13:14:05;;;;;;;14.97;11.63;;;8.70;99.90;;;;;;5028941;28;20548;-81
2022/04/05 13:16:33;;;;;;;11.30;10.10;;;8.70;99.90;;;;;;5030603;28;20462;-81
2022/04/05 13:19:11;;;;;;;13.53;10.33;;;8.80;99.90;;;;;;5030134;28;20561;-82
2022/04/05 13:21:43;;;;;;;13.20;11.77;;;8.80;99.90;;;;;;5030928;28;20468;-81
2022/04/05 13:24:13;;;;;;;12.40;10.87;;;8.80;99.90;;;;;;5030257;28;20886;-81
2022/04/05 13:26:50;;;;;;;13.83;10.80;;;8.80;99.90;;;;;;5030719;28;20450;-82
2022/04/05 13:29:19;;;;;;;10.87;9.50;;;8.80;99.90;;;;;;5032037;28;20458;-82
2022/04/05 13:31:50;;;;;;;15.60;10.40;;;8.90;99.90;;;;;;5030659;28;20560;-81
2022/04/05 13:34:19;;;;;;;13.93;10.30;;;8.90;99.90;;;;;;5028809;28;20457;-81
2022/04/05 13:36:46;;;;;;;13.23;10.20;;;8.90;99.90;;;;;;5028898;28;20512;-81
2022/04/05 13:39:15;;;;;;;11.27;9.00;;;8.90;99.90;;;;;;5029774;28;20669;-82
2022/04/05 13:41:43;;;;;;;10.30;9.20;;;9.00;99.90;;;;;;5028994;28;20574;-81
2022/04/05 13:44:12;;;;;;;13.83;9.70;;;9.00;99.90;;;;;;5031067;28;20965;-83
2022/04/05 13:46:39;;;;;;;9.17;8.20;;;8.90;99.90;;;;;;5032124;28;20526;-82
2022/04/05 13:49:09;;;;;;;11.57;8.90;;;9.00;99.90;;;;;;5029518;28;20988;-82
2022/04/05 13:51:37;;;;;;;12.27;9.60;;;9.00;99.90;;;;;;5029391;28;20492;-82
2022/04/05 13:54:06;;;;;;;12.23;9.53;;;9.10;99.90;;;;;;5029374;28;21276;-82
2022/04/05 13:56:36;;;;;;;10.27;8.10;;;9.20;99.90;;;;;;5029061;28;20548;-81
2022/04/05 13:59:04;;;;;;;12.47;8.40;;;9.20;99.90;;;;;;5027552;28;20498;-79
2022/04/05 14:01:31;;;;;;;10.47;7.67;;;9.20;99.90;;;;;;5018758;28;20565;-82
2022/04/05 14:03:57;;;;;;;8.60;7.13;;;9.20;99.90;;;;;;5009994;28;20479;-80
2022/04/05 14:06:25;;;;;;;9.27;7.53;;;9.20;99.90;;;;;;5012329;28;20447;-83
2022/04/05 14:08:53;;;;;;;9.33;7.53;;;9.30;99.90;;;;;;5012141;28;20459;-81
2022/04/05 14:11:23;;;;;;;10.73;8.67;;;9.30;99.90;;;;;;5010974;28;20463;-81
2022/04/05 14:13:52;;;;;;;9.77;8.20;;;9.40;99.90;;;;;;5010493;28;20526;-81
2022/04/05 14:16:19;;;;;;;8.50;7.60;;;9.50;99.90;;;;;;5009936;28;20553;-79
2022/04/05 14:18:47;;;;;;;9.07;8.10;;;9.50;99.90;;;;;;5012771;28;20494;-80
2022/04/05 14:21:16;;;;;;;10.13;9.03;;;9.50;99.90;;;;;;5033068;28;20469;-82
2022/04/05 14:23:44;;;;;;;10.63;8.90;;;9.60;99.90;;;;;;5033608;28;20953;-83
2022/04/05 14:26:11;;;;;;;10.57;8.27;;;9.60;99.90;;;;;;5032704;28;20500;-83
2022/04/05 14:28:39;;;;;;;13.43;9.70;;;9.60;99.90;;;;;;5032178;28;20895;-83
2022/04/05 14:31:10;;;;;;;9.63;8.63;;;9.60;99.90;;;;;;5034272;28;20481;-83
2022/04/05 14:33:38;;;;;;;9.50;8.57;;;9.60;99.90;;;;;;5039515;28;20418;-84
2022/04/05 14:36:05;;;;;;;10.60;9.50;;;9.70;99.90;;;;;;5048566;28;20481;-83
2022/04/05 14:38:32;;;;;;;11.77;9.30;;;9.70;99.90;;;;;;5047950;28;20516;-83
2022/04/05 14:40:59;;;;;;;11.23;9.37;;;9.70;99.90;;;;;;5048076;28;20478;-84
2022/04/05 14:43:27;;;;;;;10.80;9.20;;;9.80;99.90;;;;;;5047838;28;20465;-82
2022/04/05 14:45:54;;;;;;;10.17;9.17;;;9.80;99.90;;;;;;5049024;28;20458;-81
2022/04/05 14:48:24;;;;;;;11.77;10.43;;;9.80;99.90;;;;;;5049081;28;20470;-82
2022/04/05 14:51:01;;;;;;;14.60;12.60;;;9.80;99.90;;;;;;5040559;28;20466;-82
2022/04/05 14:53:36;;;;;;;17.90;13.67;;;9.80;99.90;;;;;;5040682;28;20502;-83
2022/04/05 14:56:03;;;;;;;16.37;13.57;;;9.80;99.90;;;;;;5046722;28;20453;-83
2022/04/05 14:58:42;;;;;;;15.53;12.40;;;9.80;99.90;;;;;;5053215;28;20492;-83
2022/04/05 15:01:30;;;;;;;19.20;15.37;;;9.80;99.90;;;;;;5053673;28;20497;-83
2022/04/05 15:03:58;;;;;;;18.50;13.00;;;9.80;99.90;;;;;;5043365;28;20457;-81
2022/04/05 15:06:25;;;;;;;15.47;12.07;;;9.80;99.90;;;;;;5052079;28;20490;-82
2022/04/05 15:08:52;;;;;;;15.80;13.87;;;9.90;99.90;;;;;;5047201;28;20446;-81
2022/04/05 15:11:19;;;;;;;16.30;12.10;;;9.90;99.90;;;;;;5042178;28;20469;-81
2022/04/05 15:13:48;;;;;;;12.97;11.60;;;9.90;99.90;;;;;;5041035;28;20492;-82
2022/04/05 15:16:15;;;;;;;16.77;12.57;;;9.90;99.90;;;;;;5052618;28;20622;-82
2022/04/05 15:18:42;;;;;;;22.13;17.10;;;9.90;99.90;;;;;;5051883;28;20485;-81
2022/04/05 15:21:13;;;;;;;19.23;15.63;;;9.90;99.90;;;;;;5052146;28;20458;-83
2022/04/05 15:23:40;;;;;;;17.43;12.30;;;9.90;99.90;;;;;;5048589;28;20454;-82
2022/04/05 15:26:08;;;;;;;16.77;13.10;;;9.90;99.90;;;;;;5037291;28;20454;-82
2022/04/05 15:28:35;;;;;;;17.07;13.70;;;10.00;99.90;;;;;;5036318;28;20453;-82
2022/04/05 15:31:02;;;;;;;15.67;13.00;;;10.00;99.90;;;;;;5036751;28;21132;-82
2022/04/05 15:33:29;;;;;;;14.77;12.10;;;10.00;99.90;;;;;;5036311;28;20470;-82
2022/04/05 15:35:59;;;;;;;14.23;11.30;;;10.00;99.90;;;;;;5037807;28;20525;-83
2022/04/05 15:38:28;;;;;;;15.50;11.70;;;10.10;99.90;;;;;;5035714;28;20500;-82
2022/04/05 15:40:54;;;;;;;18.10;14.60;;;10.20;99.90;;;;;;5035799;28;20537;-83
2022/04/05 15:43:21;;;;;;;26.27;16.60;;;10.10;99.90;;;;;;5036675;28;20486;-83
2022/04/05 15:45:48;;;;;;;23.20;17.23;;;10.10;99.90;;;;;;5037535;28;20504;-83
2022/04/05 15:48:15;;;;;;;18.73;13.50;;;10.10;99.90;;;;;;5037094;28;20458;-83
2022/04/05 15:50:45;;;;;;;20.10;14.20;;;10.10;99.90;;;;;;5037018;28;20488;-83
2022/04/05 15:53:11;;;;;;;18.70;13.87;;;10.10;99.90;;;;;;5037846;28;20517;-81
2022/04/05 15:55:40;;;;;;;16.97;11.87;;;10.10;99.90;;;;;;5037210;28;20469;-82
2022/04/05 15:58:07;;;;;;;17.17;12.63;;;10.10;99.90;;;;;;5037326;28;20842;-82
2022/04/05 16:00:38;;;;;;;15.03;11.17;;;10.10;99.90;;;;;;5037334;28;20513;-82
2022/04/05 16:03:05;;;;;;;15.80;12.67;;;10.10;99.90;;;;;;5037426;28;20481;-81
2022/04/05 16:05:32;;;;;;;14.10;11.87;;;10.10;99.90;;;;;;5035963;28;20458;-80
2022/04/05 16:07:59;;;;;;;12.50;11.03;;;10.10;99.90;;;;;;5035393;28;20822;-81
2022/04/05 16:10:26;;;;;;;20.80;15.57;;;10.10;99.90;;;;;;5036622;28;21012;-82
2022/04/05 16:12:54;;;;;;;37.13;23.40;;;10.10;99.90;;;;;;5037497;28;20489;-82
2022/04/05 16:15:26;;;;;;;40.50;27.17;;;10.10;99.90;;;;;;5037122;28;20450;-82
2022/04/05 16:17:53;;;;;;;20.43;16.70;;;10.10;99.90;;;;;;5036278;28;20450;-82
2022/04/05 16:20:20;;;;;;;16.07;13.23;;;10.10;99.90;;;;;;5033214;28;20442;-80
2022/04/05 16:22:47;;;;;;;16.30;13.40;;;10.10;99.90;;;;;;5031835;28;20458;-77
2022/04/05 16:25:17;;;;;;;15.83;11.83;;;10.10;99.90;;;;;;5028949;28;20474;-79
2022/04/05 16:27:45;;;;;;;17.50;13.10;;;10.10;99.90;;;;;;5027561;28;20465;-79
2022/04/05 16:30:13;;;;;;;14.87;12.17;;;10.10;99.90;;;;;;5026961;28;20460;-79
2022/04/05 16:32:40;;;;;;;18.93;12.73;;;10.10;99.90;;;;;;5029314;28;20458;-79
2022/04/05 16:35:10;;;;;;;18.20;12.53;;;10.10;99.90;;;;;;5030572;28;20450;-83
2022/04/05 16:37:36;;;;;;;19.47;13.77;;;10.10;99.90;;;;;;5031887;28;20541;-79
2022/04/05 16:40:07;;;;;;;16.97;13.27;;;10.10;99.90;;;;;;5027892;28;20559;-79
2022/04/05 16:42:34;;;;;;;18.53;14.63;;;10.10;99.90;;;;;;5029168;28;20478;-81
2022/04/05 16:45:01;;;;;;;19.97;16.40;;;10.10;99.90;;;;;;5028513;28;20867;-80
2022/04/05 16:47:29;;;;;;;23.20;17.33;;;10.10;99.90;;;;;;5028336;28;20537;-79